sensor_id;sensor_type;location;lat;lon;timestamp;P1;durP1;ratioP1;P2;durP2;ratioP2
34471;SDS011;20710;49.976;19.836;2024-02-28T00:04:42;46.30;;;25.90;;
34471;SDS011;20710;49.976;19.836;2024-02-28T00:10:54;49.20;;;28.30;;
34471;SDS011;20710;49.976;19.836;2024-02-28T00:16:58;60.30;;;31.70;;
34471;SDS011;20710;49.976;19.836;2024-02-28T00:22:59;49.80;;;30.10;;
34471;SDS011;20710;49.976;19.836;2024-02-28T00:29:00;62.90;;;33.00;;
34471;SDS011;20710;49.976;19.836;2024-02-28T00:35:31;51.30;;;30.20;;
34471;SDS011;20710;49.976;19.836;2024-02-28T00:41:36;32.50;;;19.30;;
34471;SDS011;20710;49.976;19.836;2024-02-28T00:47:37;72.60;;;35.70;;
34471;SDS011;20710;49.976;19.836;2024-02-28T00:53:41;69.10;;;36.80;;
34471;SDS011;20710;49.976;19.836;2024-02-28T00:59:43;61.40;;;34.50;;
34471;SDS011;20710;49.976;19.836;2024-02-28T01:05:45;66.50;;;33.80;;
34471;SDS011;20710;49.976;19.836;2024-02-28T01:18:32;60.10;;;31.00;;
34471;SDS011;20710;49.976;19.836;2024-02-28T01:25:16;44.10;;;26.30;;
34471;SDS011;20710;49.976;19.836;2024-02-28T01:31:19;49.40;;;29.30;;
34471;SDS011;20710;49.976;19.836;2024-02-28T01:43:53;47.60;;;28.40;;
34471;SDS011;20710;49.976;19.836;2024-02-28T01:49:58;81.90;;;37.10;;
34471;SDS011;20710;49.976;19.836;2024-02-28T01:56:00;61.10;;;30.80;;
34471;SDS011;20710;49.976;19.836;2024-02-28T02:02:01;54.60;;;29.70;;
34471;SDS011;20710;49.976;19.836;2024-02-28T02:08:03;48.70;;;26.50;;
34471;SDS011;20710;49.976;19.836;2024-02-28T02:14:04;52.10;;;29.00;;
34471;SDS011;20710;49.976;19.836;2024-02-28T02:20:05;67.40;;;35.50;;
34471;SDS011;20710;49.976;19.836;2024-02-28T02:26:11;65.30;;;36.60;;
34471;SDS011;20710;49.976;19.836;2024-02-28T02:32:12;69.40;;;37.40;;
34471;SDS011;20710;49.976;19.836;2024-02-28T02:38:14;67.20;;;38.30;;
34471;SDS011;20710;49.976;19.836;2024-02-28T02:44:19;66.00;;;36.70;;
34471;SDS011;20710;49.976;19.836;2024-02-28T02:50:21;58.30;;;34.60;;
34471;SDS011;20710;49.976;19.836;2024-02-28T02:56:27;68.90;;;35.40;;
34471;SDS011;20710;49.976;19.836;2024-02-28T03:02:34;68.20;;;37.00;;
34471;SDS011;20710;49.976;19.836;2024-02-28T03:08:41;65.80;;;37.60;;
34471;SDS011;20710;49.976;19.836;2024-02-28T03:14:50;67.90;;;37.10;;
34471;SDS011;20710;49.976;19.836;2024-02-28T03:20:53;68.00;;;38.00;;
34471;SDS011;20710;49.976;19.836;2024-02-28T03:26:59;80.10;;;39.60;;
34471;SDS011;20710;49.976;19.836;2024-02-28T03:33:04;65.90;;;38.20;;
34471;SDS011;20710;49.976;19.836;2024-02-28T03:40:01;57.50;;;33.40;;
34471;SDS011;20710;49.976;19.836;2024-02-28T03:46:52;59.30;;;30.70;;
34471;SDS011;20710;49.976;19.836;2024-02-28T03:53:02;63.10;;;34.00;;
34471;SDS011;20710;49.976;19.836;2024-02-28T03:59:09;64.40;;;36.40;;
34471;SDS011;20710;49.976;19.836;2024-02-28T04:05:13;77.30;;;41.90;;
34471;SDS011;20710;49.976;19.836;2024-02-28T04:11:19;75.60;;;40.70;;
34471;SDS011;20710;49.976;19.836;2024-02-28T04:17:24;75.40;;;43.00;;
34471;SDS011;20710;49.976;19.836;2024-02-28T04:23:27;80.90;;;44.60;;
34471;SDS011;20710;49.976;19.836;2024-02-28T04:29:43;82.50;;;42.90;;
34471;SDS011;20710;49.976;19.836;2024-02-28T04:35:50;108.30;;;55.10;;
34471;SDS011;20710;49.976;19.836;2024-02-28T04:42:05;72.10;;;40.10;;
34471;SDS011;20710;49.976;19.836;2024-02-28T04:48:19;74.60;;;39.00;;
34471;SDS011;20710;49.976;19.836;2024-02-28T04:54:24;73.00;;;38.80;;
34471;SDS011;20710;49.976;19.836;2024-02-28T05:00:27;63.40;;;36.70;;
34471;SDS011;20710;49.976;19.836;2024-02-28T05:06:32;59.60;;;36.70;;
34471;SDS011;20710;49.976;19.836;2024-02-28T05:12:40;66.20;;;37.70;;
34471;SDS011;20710;49.976;19.836;2024-02-28T05:18:46;61.60;;;35.40;;
34471;SDS011;20710;49.976;19.836;2024-02-28T05:24:51;62.40;;;36.50;;
34471;SDS011;20710;49.976;19.836;2024-02-28T05:30:55;62.30;;;33.60;;
34471;SDS011;20710;49.976;19.836;2024-02-28T05:37:00;64.60;;;36.70;;
34471;SDS011;20710;49.976;19.836;2024-02-28T05:43:07;66.50;;;38.00;;
34471;SDS011;20710;49.976;19.836;2024-02-28T05:49:16;63.70;;;35.90;;
34471;SDS011;20710;49.976;19.836;2024-02-28T06:02:11;62.10;;;35.80;;
34471;SDS011;20710;49.976;19.836;2024-02-28T06:08:20;62.70;;;35.60;;
34471;SDS011;20710;49.976;19.836;2024-02-28T06:22:07;68.90;;;39.00;;
34471;SDS011;20710;49.976;19.836;2024-02-28T06:29:59;66.20;;;38.20;;
34471;SDS011;20710;49.976;19.836;2024-02-28T06:36:52;61.60;;;34.20;;
34471;SDS011;20710;49.976;19.836;2024-02-28T07:31:06;128.40;;;61.60;;
34471;SDS011;20710;49.976;19.836;2024-02-28T08:09:12;78.80;;;45.00;;
34471;SDS011;20710;49.976;19.836;2024-02-28T08:15:59;74.70;;;42.40;;
34471;SDS011;20710;49.976;19.836;2024-02-28T08:22:04;68.90;;;38.60;;
34471;SDS011;20710;49.976;19.836;2024-02-28T08:28:16;75.60;;;42.20;;
34471;SDS011;20710;49.976;19.836;2024-02-28T08:34:28;71.90;;;41.20;;
34471;SDS011;20710;49.976;19.836;2024-02-28T08:41:34;67.30;;;41.30;;
34471;SDS011;20710;49.976;19.836;2024-02-28T08:47:36;68.40;;;40.20;;
34471;SDS011;20710;49.976;19.836;2024-02-28T08:53:50;61.00;;;38.60;;
34471;SDS011;20710;49.976;19.836;2024-02-28T09:00:02;64.80;;;39.80;;
34471;SDS011;20710;49.976;19.836;2024-02-28T09:06:10;92.50;;;43.60;;
34471;SDS011;20710;49.976;19.836;2024-02-28T09:12:15;67.00;;;37.60;;
34471;SDS011;20710;49.976;19.836;2024-02-28T09:18:18;64.90;;;35.70;;
34471;SDS011;20710;49.976;19.836;2024-02-28T09:24:23;63.90;;;33.90;;
34471;SDS011;20710;49.976;19.836;2024-02-28T09:30:29;61.20;;;34.70;;
34471;SDS011;20710;49.976;19.836;2024-02-28T09:36:42;53.40;;;32.60;;
34471;SDS011;20710;49.976;19.836;2024-02-28T09:42:52;55.10;;;32.20;;
34471;SDS011;20710;49.976;19.836;2024-02-28T09:49:03;57.10;;;32.70;;
34471;SDS011;20710;49.976;19.836;2024-02-28T09:55:25;65.10;;;35.40;;
34471;SDS011;20710;49.976;19.836;2024-02-28T10:01:30;68.50;;;38.30;;
34471;SDS011;20710;49.976;19.836;2024-02-28T10:07:42;61.80;;;36.80;;
34471;SDS011;20710;49.976;19.836;2024-02-28T10:13:50;58.40;;;36.30;;
34471;SDS011;20710;49.976;19.836;2024-02-28T10:19:57;68.20;;;38.10;;
34471;SDS011;20710;49.976;19.836;2024-02-28T10:26:01;70.60;;;37.00;;
34471;SDS011;20710;49.976;19.836;2024-02-28T10:32:05;60.10;;;35.00;;
34471;SDS011;20710;49.976;19.836;2024-02-28T10:38:17;61.20;;;36.00;;
34471;SDS011;20710;49.976;19.836;2024-02-28T10:44:20;61.20;;;35.50;;
34471;SDS011;20710;49.976;19.836;2024-02-28T10:50:22;55.90;;;33.50;;
34471;SDS011;20710;49.976;19.836;2024-02-28T10:56:25;63.50;;;34.20;;
34471;SDS011;20710;49.976;19.836;2024-02-28T11:02:33;62.50;;;34.60;;
34471;SDS011;20710;49.976;19.836;2024-02-28T11:08:51;60.70;;;35.30;;
34471;SDS011;20710;49.976;19.836;2024-02-28T11:15:02;62.00;;;35.10;;
34471;SDS011;20710;49.976;19.836;2024-02-28T11:21:17;66.40;;;35.00;;
34471;SDS011;20710;49.976;19.836;2024-02-28T11:27:31;59.60;;;33.30;;
34471;SDS011;20710;49.976;19.836;2024-02-28T11:33:36;65.50;;;31.70;;
34471;SDS011;20710;49.976;19.836;2024-02-28T11:39:39;56.60;;;33.00;;
34471;SDS011;20710;49.976;19.836;2024-02-28T11:45:42;55.80;;;31.20;;
34471;SDS011;20710;49.976;19.836;2024-02-28T11:51:46;52.60;;;28.70;;
34471;SDS011;20710;49.976;19.836;2024-02-28T11:57:49;43.90;;;25.90;;
34471;SDS011;20710;49.976;19.836;2024-02-28T12:03:52;44.10;;;23.60;;
34471;SDS011;20710;49.976;19.836;2024-02-28T12:10:09;42.40;;;24.30;;
34471;SDS011;20710;49.976;19.836;2024-02-28T12:16:12;34.20;;;22.60;;
34471;SDS011;20710;49.976;19.836;2024-02-28T12:29:07;40.00;;;23.90;;
34471;SDS011;20710;49.976;19.836;2024-02-28T12:35:12;48.20;;;24.20;;
34471;SDS011;20710;49.976;19.836;2024-02-28T12:41:14;47.70;;;24.30;;
34471;SDS011;20710;49.976;19.836;2024-02-28T12:47:20;55.70;;;27.50;;
34471;SDS011;20710;49.976;19.836;2024-02-28T12:53:22;51.50;;;23.20;;
34471;SDS011;20710;49.976;19.836;2024-02-28T12:59:25;46.70;;;21.30;;
34471;SDS011;20710;49.976;19.836;2024-02-28T13:05:27;34.30;;;18.80;;
34471;SDS011;20710;49.976;19.836;2024-02-28T13:11:36;31.30;;;17.30;;
34471;SDS011;20710;49.976;19.836;2024-02-28T13:17:39;28.30;;;17.20;;
34471;SDS011;20710;49.976;19.836;2024-02-28T13:23:42;33.00;;;18.40;;
34471;SDS011;20710;49.976;19.836;2024-02-28T13:29:47;36.00;;;18.70;;
34471;SDS011;20710;49.976;19.836;2024-02-28T13:35:55;30.70;;;17.90;;
34471;SDS011;20710;49.976;19.836;2024-02-28T13:42:00;31.70;;;17.40;;
34471;SDS011;20710;49.976;19.836;2024-02-28T13:48:14;33.20;;;19.30;;
34471;SDS011;20710;49.976;19.836;2024-02-28T13:54:17;34.60;;;20.20;;
34471;SDS011;20710;49.976;19.836;2024-02-28T14:00:20;37.40;;;20.50;;
34471;SDS011;20710;49.976;19.836;2024-02-28T14:06:26;43.80;;;24.90;;
34471;SDS011;20710;49.976;19.836;2024-02-28T14:12:29;46.80;;;27.00;;
34471;SDS011;20710;49.976;19.836;2024-02-28T14:25:21;50.00;;;29.60;;
34471;SDS011;20710;49.976;19.836;2024-02-28T14:31:25;55.50;;;32.40;;
34471;SDS011;20710;49.976;19.836;2024-02-28T14:37:33;58.10;;;34.50;;
34471;SDS011;20710;49.976;19.836;2024-02-28T14:43:41;62.00;;;34.80;;
34471;SDS011;20710;49.976;19.836;2024-02-28T14:49:47;55.00;;;34.10;;
34471;SDS011;20710;49.976;19.836;2024-02-28T14:55:51;57.00;;;38.00;;
34471;SDS011;20710;49.976;19.836;2024-02-28T15:01:54;78.60;;;45.00;;
34471;SDS011;20710;49.976;19.836;2024-02-28T15:07:56;81.80;;;49.70;;
34471;SDS011;20710;49.976;19.836;2024-02-28T15:13:58;78.90;;;49.20;;
34471;SDS011;20710;49.976;19.836;2024-02-28T15:20:00;82.10;;;47.20;;
34471;SDS011;20710;49.976;19.836;2024-02-28T15:26:05;80.20;;;47.20;;
34471;SDS011;20710;49.976;19.836;2024-02-28T15:32:09;76.40;;;46.40;;
34471;SDS011;20710;49.976;19.836;2024-02-28T15:38:15;82.00;;;49.60;;
34471;SDS011;20710;49.976;19.836;2024-02-28T15:44:30;85.10;;;50.30;;
34471;SDS011;20710;49.976;19.836;2024-02-28T15:50:34;76.40;;;46.00;;
34471;SDS011;20710;49.976;19.836;2024-02-28T15:56:45;75.50;;;45.80;;
34471;SDS011;20710;49.976;19.836;2024-02-28T16:02:47;76.30;;;46.50;;
34471;SDS011;20710;49.976;19.836;2024-02-28T16:09:02;85.50;;;48.90;;
34471;SDS011;20710;49.976;19.836;2024-02-28T16:15:06;84.90;;;50.50;;
34471;SDS011;20710;49.976;19.836;2024-02-28T16:21:09;111.50;;;58.50;;
34471;SDS011;20710;49.976;19.836;2024-02-28T16:27:19;116.50;;;59.70;;
34471;SDS011;20710;49.976;19.836;2024-02-28T16:33:24;133.00;;;65.20;;
34471;SDS011;20710;49.976;19.836;2024-02-28T16:43:10;152.40;;;73.00;;
34471;SDS011;20710;49.976;19.836;2024-02-28T16:49:15;170.40;;;80.70;;
34471;SDS011;20710;49.976;19.836;2024-02-28T16:55:25;171.80;;;76.40;;
34471;SDS011;20710;49.976;19.836;2024-02-28T17:01:47;168.80;;;77.20;;
34471;SDS011;20710;49.976;19.836;2024-02-28T17:07:53;189.00;;;82.70;;
34471;SDS011;20710;49.976;19.836;2024-02-28T17:14:17;175.30;;;83.30;;
34471;SDS011;20710;49.976;19.836;2024-02-28T17:20:31;184.80;;;82.60;;
34471;SDS011;20710;49.976;19.836;2024-02-28T17:26:41;176.60;;;77.50;;
34471;SDS011;20710;49.976;19.836;2024-02-28T17:33:04;171.10;;;77.50;;
34471;SDS011;20710;49.976;19.836;2024-02-28T17:39:51;170.60;;;75.10;;
34471;SDS011;20710;49.976;19.836;2024-02-28T17:52:35;155.20;;;71.60;;
34471;SDS011;20710;49.976;19.836;2024-02-28T17:59:15;158.60;;;71.60;;
34471;SDS011;20710;49.976;19.836;2024-02-28T18:05:38;157.90;;;71.10;;
34471;SDS011;20710;49.976;19.836;2024-02-28T18:25:06;153.10;;;69.30;;
34471;SDS011;20710;49.976;19.836;2024-02-28T18:31:19;153.80;;;70.50;;
34471;SDS011;20710;49.976;19.836;2024-02-28T18:44:03;158.60;;;75.40;;
34471;SDS011;20710;49.976;19.836;2024-02-28T18:50:51;167.90;;;74.10;;
34471;SDS011;20710;49.976;19.836;2024-02-28T18:57:04;161.30;;;72.30;;
34471;SDS011;20710;49.976;19.836;2024-02-28T19:03:21;143.00;;;67.30;;
34471;SDS011;20710;49.976;19.836;2024-02-28T19:09:45;155.10;;;69.00;;
34471;SDS011;20710;49.976;19.836;2024-02-28T19:23:11;157.70;;;71.10;;
34471;SDS011;20710;49.976;19.836;2024-02-28T19:29:40;143.10;;;65.90;;
34471;SDS011;20710;49.976;19.836;2024-02-28T19:36:06;151.70;;;67.00;;
34471;SDS011;20710;49.976;19.836;2024-02-28T19:42:56;145.80;;;64.80;;
34471;SDS011;20710;49.976;19.836;2024-02-28T19:49:07;140.50;;;63.90;;
34471;SDS011;20710;49.976;19.836;2024-02-28T19:55:32;133.80;;;61.30;;
34471;SDS011;20710;49.976;19.836;2024-02-28T20:01:36;144.50;;;67.20;;
34471;SDS011;20710;49.976;19.836;2024-02-28T20:07:41;137.90;;;65.70;;
34471;SDS011;20710;49.976;19.836;2024-02-28T20:14:13;145.50;;;67.70;;
34471;SDS011;20710;49.976;19.836;2024-02-28T20:27:01;146.40;;;68.60;;
34471;SDS011;20710;49.976;19.836;2024-02-28T20:40:04;135.00;;;65.40;;
34471;SDS011;20710;49.976;19.836;2024-02-28T20:46:22;140.80;;;66.80;;
34471;SDS011;20710;49.976;19.836;2024-02-28T20:58:51;157.30;;;69.40;;
34471;SDS011;20710;49.976;19.836;2024-02-28T21:05:06;153.60;;;67.00;;
34471;SDS011;20710;49.976;19.836;2024-02-28T21:11:17;140.70;;;66.50;;
34471;SDS011;20710;49.976;19.836;2024-02-28T21:17:30;151.00;;;68.10;;
34471;SDS011;20710;49.976;19.836;2024-02-28T21:23:43;144.90;;;66.10;;
34471;SDS011;20710;49.976;19.836;2024-02-28T21:30:09;142.10;;;62.80;;
34471;SDS011;20710;49.976;19.836;2024-02-28T21:36:16;146.80;;;66.80;;
34471;SDS011;20710;49.976;19.836;2024-02-28T21:42:29;157.30;;;68.20;;
34471;SDS011;20710;49.976;19.836;2024-02-28T21:48:35;142.70;;;63.60;;
34471;SDS011;20710;49.976;19.836;2024-02-28T21:54:43;165.80;;;69.00;;
34471;SDS011;20710;49.976;19.836;2024-02-28T22:00:59;150.40;;;64.10;;
34471;SDS011;20710;49.976;19.836;2024-02-28T22:07:06;156.10;;;64.60;;
34471;SDS011;20710;49.976;19.836;2024-02-28T22:13:10;152.20;;;63.20;;
34471;SDS011;20710;49.976;19.836;2024-02-28T22:19:29;153.20;;;63.50;;
34471;SDS011;20710;49.976;19.836;2024-02-28T22:25:32;149.70;;;60.90;;
34471;SDS011;20710;49.976;19.836;2024-02-28T22:31:35;177.40;;;68.60;;
34471;SDS011;20710;49.976;19.836;2024-02-28T22:37:49;155.70;;;64.10;;
34471;SDS011;20710;49.976;19.836;2024-02-28T22:43:58;172.10;;;65.20;;
34471;SDS011;20710;49.976;19.836;2024-02-28T22:50:02;174.50;;;64.00;;
34471;SDS011;20710;49.976;19.836;2024-02-28T22:56:08;185.60;;;64.50;;
34471;SDS011;20710;49.976;19.836;2024-02-28T23:02:20;191.00;;;68.00;;
34471;SDS011;20710;49.976;19.836;2024-02-28T23:08:29;177.40;;;63.70;;
34471;SDS011;20710;49.976;19.836;2024-02-28T23:14:39;187.80;;;62.90;;
34471;SDS011;20710;49.976;19.836;2024-02-28T23:20:42;185.90;;;63.60;;
34471;SDS011;20710;49.976;19.836;2024-02-28T23:26:48;189.90;;;62.40;;
34471;SDS011;20710;49.976;19.836;2024-02-28T23:32:54;181.80;;;61.00;;
34471;SDS011;20710;49.976;19.836;2024-02-28T23:38:57;182.70;;;62.40;;
34471;SDS011;20710;49.976;19.836;2024-02-28T23:45:06;180.30;;;60.90;;
34471;SDS011;20710;49.976;19.836;2024-02-28T23:51:09;181.90;;;58.10;;
